Time;durP1;ratioP1;P1;durP2;ratioP2;P2;SDS_P1;SDS_P2;PMS_P1;PMS_P2;Temp;Humidity;BMP_temperature;BMP_pressure;BME280_temperature;BME280_humidity;BME280_pressure;Samples;Min_cycle;Max_cycle;Signal;HPM_P1;HPM_P2
2021/05/09 00:01:01;;;;;;;4.00;1.85;;;;;;;;;;5116221;28;20379;-76
2021/05/09 00:03:27;;;;;;;4.22;1.92;;;;;;;;;;5110034;28;20464;-76
2021/05/09 00:05:54;;;;;;;2.70;1.42;;;;;;;;;;5113099;28;20065;-75
2021/05/09 00:08:20;;;;;;;3.78;2.10;;;;;;;;;;5109187;28;20020;-75
2021/05/09 00:10:46;;;;;;;2.03;1.27;;;;;;;;;;5108291;28;20381;-75
2021/05/09 00:13:12;;;;;;;2.25;1.40;;;;;;;;;;5109492;28;20103;-76
2021/05/09 00:15:38;;;;;;;2.25;1.30;;;;;;;;;;5097848;28;20070;-76
2021/05/09 00:18:05;;;;;;;5.88;1.92;;;;;;;;;;5096148;28;20473;-76
2021/05/09 00:20:31;;;;;;;2.80;1.63;;;;;;;;;;5096482;28;20093;-76
2021/05/09 00:22:58;;;;;;;3.65;1.25;;;;;;;;;;5096056;28;20024;-76
2021/05/09 00:25:24;;;;;;;2.60;1.48;;;;;;;;;;5095585;28;20028;-76
2021/05/09 00:27:50;;;;;;;4.95;1.50;;;;;;;;;;5093934;28;20020;-77
2021/05/09 00:30:18;;;;;;;1.77;1.08;;;;;;;;;;5094357;28;20024;-77
2021/05/09 00:32:45;;;;;;;3.75;1.63;;;;;;;;;;5095489;28;20020;-75
2021/05/09 00:35:11;;;;;;;3.30;1.77;;;;;;;;;;5095216;28;20035;-76
2021/05/09 00:37:38;;;;;;;9.00;2.38;;;;;;;;;;5094297;28;20027;-77
2021/05/09 00:40:05;;;;;;;2.83;1.77;;;;;;;;;;5094304;28;20027;-78
2021/05/09 00:42:31;;;;;;;3.70;1.75;;;;;;;;;;5093531;28;20044;-77
2021/05/09 00:44:57;;;;;;;3.55;1.90;;;;;;;;;;5093937;28;20032;-78
2021/05/09 00:47:23;;;;;;;6.43;2.00;;;;;;;;;;5095266;28;20032;-74
2021/05/09 00:49:49;;;;;;;3.70;1.75;;;;;;;;;;5094602;28;20098;-76
2021/05/09 00:52:16;;;;;;;4.03;1.83;;;;;;;;;;5095023;28;20461;-77
2021/05/09 00:55:02;;;;;;;4.25;2.00;;;;;;;;;;5094958;28;20021;-77
2021/05/09 00:57:31;;;;;;;3.25;2.03;;;;;;;;;;5094158;28;20483;-77
2021/05/09 00:59:59;;;;;;;4.13;1.88;;;;;;;;;;5094979;28;20024;-75
2021/05/09 01:02:25;;;;;;;3.45;1.90;;;;;;;;;;5094883;28;20035;-76
2021/05/09 01:04:52;;;;;;;4.70;1.85;;;;;;;;;;5092935;28;20044;-75
2021/05/09 01:07:18;;;;;;;5.25;1.90;;;;;;;;;;5094699;28;20495;-75
2021/05/09 01:09:44;;;;;;;2.58;1.55;;;;;;;;;;5094719;28;20032;-75
2021/05/09 01:12:11;;;;;;;3.40;1.70;;;;;;;;;;5094251;28;20543;-75
2021/05/09 01:14:38;;;;;;;3.97;1.65;;;;;;;;;;5094587;28;20020;-75
2021/05/09 01:17:05;;;;;;;2.97;1.55;;;;;;;;;;5094160;28;20021;-75
2021/05/09 01:19:31;;;;;;;5.00;2.08;;;;;;;;;;5093306;28;20024;-75
2021/05/09 01:21:58;;;;;;;3.67;1.92;;;;;;;;;;5094573;28;20094;-75
2021/05/09 01:24:24;;;;;;;3.88;1.75;;;;;;;;;;5092612;28;20044;-75
2021/05/09 01:26:50;;;;;;;3.42;2.13;;;;;;;;;;5092004;28;20476;-75
2021/05/09 01:29:16;;;;;;;3.38;1.98;;;;;;;;;;5094222;28;20028;-76
2021/05/09 01:31:46;;;;;;;3.90;1.77;;;;;;;;;;5093843;28;20037;-76
2021/05/09 01:34:12;;;;;;;6.30;1.70;;;;;;;;;;5094401;28;20048;-76
2021/05/09 01:36:38;;;;;;;3.83;1.80;;;;;;;;;;5094088;28;20031;-76
2021/05/09 01:39:05;;;;;;;4.88;1.98;;;;;;;;;;5093710;28;20090;-78
2021/05/09 01:41:31;;;;;;;3.03;1.90;;;;;;;;;;5094002;28;20519;-76
2021/05/09 01:43:58;;;;;;;2.15;1.50;;;;;;;;;;5092587;28;20119;-76
2021/05/09 01:46:24;;;;;;;3.00;1.40;;;;;;;;;;5093650;28;20028;-76
2021/05/09 01:48:50;;;;;;;4.13;1.95;;;;;;;;;;5093811;28;20052;-76
2021/05/09 01:51:16;;;;;;;4.55;1.73;;;;;;;;;;5093796;28;20020;-76
2021/05/09 01:53:43;;;;;;;5.38;2.75;;;;;;;;;;5093582;28;20016;-76
2021/05/09 01:56:09;;;;;;;3.55;2.10;;;;;;;;;;5093869;28;20474;-77
2021/05/09 01:58:35;;;;;;;3.33;1.60;;;;;;;;;;5093731;28;20020;-76
2021/05/09 02:01:01;;;;;;;4.15;2.25;;;;;;;;;;5093272;28;20046;-76
2021/05/09 02:03:27;;;;;;;4.97;2.40;;;;;;;;;;5093343;28;20052;-76
2021/05/09 02:05:53;;;;;;;4.45;1.73;;;;;;;;;;5093603;28;20021;-77
2021/05/09 02:08:22;;;;;;;3.63;1.75;;;;;;;;;;5091800;28;20058;-76
2021/05/09 02:10:48;;;;;;;4.30;1.95;;;;;;;;;;5093401;28;20050;-76
2021/05/09 02:13:15;;;;;;;4.72;2.13;;;;;;;;;;5092977;28;20028;-76
2021/05/09 02:15:41;;;;;;;3.92;2.05;;;;;;;;;;5093636;28;20048;-76
2021/05/09 02:18:07;;;;;;;6.38;3.08;;;;;;;;;;5093418;28;20052;-76
2021/05/09 02:20:33;;;;;;;4.80;2.28;;;;;;;;;;5092881;28;20472;-76
2021/05/09 02:22:59;;;;;;;8.75;2.53;;;;;;;;;;5093158;28;20028;-76
2021/05/09 02:25:25;;;;;;;3.70;2.00;;;;;;;;;;5093255;28;20034;-76
2021/05/09 02:27:52;;;;;;;5.15;2.40;;;;;;;;;;5091479;28;20024;-76
2021/05/09 02:30:18;;;;;;;4.55;1.85;;;;;;;;;;5091877;28;20311;-76
2021/05/09 02:32:44;;;;;;;3.25;1.95;;;;;;;;;;5093147;28;20107;-76
2021/05/09 02:35:11;;;;;;;5.55;1.95;;;;;;;;;;5092829;28;20020;-77
2021/05/09 02:37:37;;;;;;;5.35;2.33;;;;;;;;;;5093052;28;20093;-77
2021/05/09 02:40:04;;;;;;;3.83;1.77;;;;;;;;;;5091800;28;20063;-77
2021/05/09 02:42:31;;;;;;;4.95;2.33;;;;;;;;;;5092596;28;20020;-77
2021/05/09 02:44:57;;;;;;;4.65;2.08;;;;;;;;;;5092863;28;20036;-77
2021/05/09 02:47:29;;;;;;;4.78;2.60;;;;;;;;;;5092936;28;20020;-76
2021/05/09 02:49:57;;;;;;;5.65;2.20;;;;;;;;;;5091419;28;20020;-76
2021/05/09 02:52:23;;;;;;;4.82;2.58;;;;;;;;;;5092887;28;20046;-76
2021/05/09 02:54:50;;;;;;;4.93;2.03;;;;;;;;;;5092955;28;20614;-77
2021/05/09 02:57:16;;;;;;;3.63;1.85;;;;;;;;;;5092751;28;20028;-77
2021/05/09 02:59:42;;;;;;;2.97;1.65;;;;;;;;;;5092947;28;20496;-77
2021/05/09 03:02:09;;;;;;;4.82;2.13;;;;;;;;;;5092775;28;20529;-77
2021/05/09 03:04:35;;;;;;;3.22;1.70;;;;;;;;;;5090857;28;20127;-76
2021/05/09 03:07:01;;;;;;;2.80;1.70;;;;;;;;;;5092742;28;20024;-77
2021/05/09 03:09:27;;;;;;;5.55;2.05;;;;;;;;;;5092273;28;20111;-77
2021/05/09 03:11:54;;;;;;;3.88;2.08;;;;;;;;;;5092641;28;20108;-77
2021/05/09 03:14:20;;;;;;;7.65;3.38;;;;;;;;;;5092810;28;20440;-76
2021/05/09 03:16:46;;;;;;;7.90;3.83;;;;;;;;;;5092399;28;20469;-76
2021/05/09 03:19:12;;;;;;;7.88;3.83;;;;;;;;;;5092583;28;20500;-76
2021/05/09 03:21:41;;;;;;;6.15;3.17;;;;;;;;;;5092648;28;20022;-76
2021/05/09 03:24:08;;;;;;;8.43;3.47;;;;;;;;;;5092147;28;20066;-76
2021/05/09 03:26:34;;;;;;;5.90;2.78;;;;;;;;;;5092623;28;20376;-77
2021/05/09 03:29:00;;;;;;;5.70;2.63;;;;;;;;;;5093068;28;20389;-75
2021/05/09 03:31:27;;;;;;;5.80;2.20;;;;;;;;;;5092136;28;20039;-77
2021/05/09 03:33:53;;;;;;;6.28;2.40;;;;;;;;;;5092484;28;20043;-78
2021/05/09 03:36:19;;;;;;;4.25;2.30;;;;;;;;;;5091357;28;20028;-78
2021/05/09 03:38:45;;;;;;;5.82;2.70;;;;;;;;;;5092264;28;20109;-78
2021/05/09 03:41:11;;;;;;;3.17;1.98;;;;;;;;;;5092447;28;20483;-78
2021/05/09 03:43:38;;;;;;;4.28;2.28;;;;;;;;;;5090962;28;20085;-77
2021/05/09 03:46:04;;;;;;;5.43;2.70;;;;;;;;;;5092101;28;20058;-75
2021/05/09 03:48:30;;;;;;;4.18;2.55;;;;;;;;;;5092237;28;20388;-74
2021/05/09 03:50:56;;;;;;;3.63;1.83;;;;;;;;;;5094825;28;20024;-77
2021/05/09 03:53:23;;;;;;;3.97;2.38;;;;;;;;;;5095794;28;20087;-76
2021/05/09 03:55:50;;;;;;;7.47;2.80;;;;;;;;;;5095082;28;20028;-76
2021/05/09 03:58:16;;;;;;;5.68;2.72;;;;;;;;;;5094906;28;20024;-77
2021/05/09 04:00:42;;;;;;;4.43;1.95;;;;;;;;;;5094357;28;20024;-77
2021/05/09 04:03:22;;;;;;;4.68;2.10;;;;;;;;;;5095781;28;20547;-76
2021/05/09 04:05:52;;;;;;;6.47;2.67;;;;;;;;;;5095504;28;20032;-76
2021/05/09 04:08:19;;;;;;;4.15;2.13;;;;;;;;;;5094507;28;20023;-76
2021/05/09 04:10:45;;;;;;;4.25;2.13;;;;;;;;;;5095871;28;20047;-76
2021/05/09 04:13:11;;;;;;;3.10;2.15;;;;;;;;;;5094023;28;20107;-76
2021/05/09 04:15:37;;;;;;;4.35;2.15;;;;;;;;;;5095899;28;20028;-75
2021/05/09 04:18:04;;;;;;;5.07;2.10;;;;;;;;;;5096213;28;20104;-76
2021/05/09 04:20:30;;;;;;;5.55;1.90;;;;;;;;;;5095169;28;20035;-75
2021/05/09 04:23:09;;;;;;;2.60;1.80;;;;;;;;;;5095518;28;20024;-76
2021/05/09 04:25:35;;;;;;;2.75;1.65;;;;;;;;;;5095521;28;20055;-76
2021/05/09 04:28:02;;;;;;;6.30;2.80;;;;;;;;;;5095097;28;20020;-76
2021/05/09 04:30:28;;;;;;;5.43;2.53;;;;;;;;;;5095406;28;20024;-76
2021/05/09 04:32:58;;;;;;;4.80;2.28;;;;;;;;;;5095421;28;20016;-76
2021/05/09 04:35:24;;;;;;;7.28;2.80;;;;;;;;;;5095140;28;20039;-76
2021/05/09 04:37:50;;;;;;;5.15;2.28;;;;;;;;;;5095453;28;20479;-76
2021/05/09 04:40:17;;;;;;;6.75;2.22;;;;;;;;;;5095063;28;20031;-76
2021/05/09 04:42:43;;;;;;;3.20;1.85;;;;;;;;;;5093598;28;20024;-76
2021/05/09 04:45:09;;;;;;;4.68;2.28;;;;;;;;;;5095302;28;20020;-75
2021/05/09 04:47:36;;;;;;;3.42;2.30;;;;;;;;;;5093851;28;20423;-75
2021/05/09 04:50:03;;;;;;;5.05;2.55;;;;;;;;;;5094633;28;20024;-75
2021/05/09 04:52:29;;;;;;;4.13;1.95;;;;;;;;;;5095016;28;20016;-75
2021/05/09 04:54:55;;;;;;;4.65;1.80;;;;;;;;;;5093372;28;20384;-75
2021/05/09 04:57:21;;;;;;;5.18;2.22;;;;;;;;;;5093857;28;20020;-75
2021/05/09 04:59:47;;;;;;;5.18;1.85;;;;;;;;;;5093868;28;20020;-75
2021/05/09 05:02:13;;;;;;;4.03;2.25;;;;;;;;;;5094424;28;20020;-75
2021/05/09 05:04:39;;;;;;;4.35;1.90;;;;;;;;;;5094465;28;20044;-75
2021/05/09 05:07:06;;;;;;;4.40;2.30;;;;;;;;;;5094860;28;20020;-75
2021/05/09 05:09:32;;;;;;;4.60;2.05;;;;;;;;;;5094709;28;20020;-75
2021/05/09 05:11:58;;;;;;;4.75;1.92;;;;;;;;;;5094654;28;20547;-75
2021/05/09 05:14:24;;;;;;;3.30;1.83;;;;;;;;;;5094568;28;20032;-75
2021/05/09 05:16:50;;;;;;;3.05;1.70;;;;;;;;;;5094410;28;20101;-74
2021/05/09 05:19:16;;;;;;;3.25;1.40;;;;;;;;;;5093335;28;20024;-75
2021/05/09 05:21:43;;;;;;;3.70;1.25;;;;;;;;;;5093188;28;20026;-74
2021/05/09 05:24:09;;;;;;;3.72;1.65;;;;;;;;;;5092755;28;20395;-75
2021/05/09 05:26:35;;;;;;;4.95;1.75;;;;;;;;;;5094430;28;20028;-76
2021/05/09 05:29:01;;;;;;;3.17;1.67;;;;;;;;;;5094549;28;20038;-76
2021/05/09 05:31:28;;;;;;;3.40;1.45;;;;;;;;;;5093901;28;20031;-76
2021/05/09 05:33:54;;;;;;;2.65;1.42;;;;;;;;;;5094519;28;20473;-75
2021/05/09 05:36:20;;;;;;;3.75;1.67;;;;;;;;;;5094325;28;20380;-75
2021/05/09 05:38:46;;;;;;;2.53;1.02;;;;;;;;;;5093797;28;20020;-75
2021/05/09 05:41:12;;;;;;;1.67;1.13;;;;;;;;;;5093968;28;20020;-75
2021/05/09 05:43:39;;;;;;;1.85;1.17;;;;;;;;;;5092607;28;20016;-75
2021/05/09 05:46:05;;;;;;;3.53;1.42;;;;;;;;;;5093476;28;20476;-75
2021/05/09 05:48:31;;;;;;;2.80;1.60;;;;;;;;;;5092630;28;20028;-75
2021/05/09 05:50:58;;;;;;;3.00;1.33;;;;;;;;;;5093685;28;20024;-75
2021/05/09 05:53:26;;;;;;;1.23;0.75;;;;;;;;;;5093394;28;20022;-75
2021/05/09 05:55:52;;;;;;;4.57;1.52;;;;;;;;;;5094077;28;20415;-75
2021/05/09 05:58:19;;;;;;;1.30;0.95;;;;;;;;;;5092219;28;20487;-75
2021/05/09 06:01:42;;;;;;;1.70;0.90;;;;;;;;;;5110540;27;20385;-75
2021/05/09 06:04:09;;;;;;;4.57;1.55;;;;;;;;;;5110850;28;20031;-75
2021/05/09 06:06:35;;;;;;;2.05;1.25;;;;;;;;;;5110088;28;20016;-75
2021/05/09 06:09:03;;;;;;;3.17;1.50;;;;;;;;;;5110543;28;20024;-75
2021/05/09 06:13:42;;;;;;;4.25;1.60;;;;;;;;;;5110300;27;20383;-74
2021/05/09 06:16:09;;;;;;;5.50;2.25;;;;;;;;;;5110626;28;20035;-75
2021/05/09 06:18:52;;;;;;;5.07;2.20;;;;;;;;;;5110483;27;20350;-75
2021/05/09 06:21:18;;;;;;;4.72;2.10;;;;;;;;;;5108850;28;20031;-75
2021/05/09 06:24:16;;;;;;;8.73;3.55;;;;;;;;;;5110546;27;20446;-74
2021/05/09 06:26:42;;;;;;;13.13;3.90;;;;;;;;;;5110198;28;20552;-75
2021/05/09 06:30:27;;;;;;;6.60;2.92;;;;;;;;;;5110620;27;20389;-77
2021/05/09 06:32:53;;;;;;;7.65;3.03;;;;;;;;;;5110710;28;20039;-77
2021/05/09 06:35:19;;;;;;;7.00;2.78;;;;;;;;;;5110373;28;20556;-75
2021/05/09 06:37:46;;;;;;;9.98;3.25;;;;;;;;;;5110580;28;20031;-75
2021/05/09 06:40:12;;;;;;;5.75;2.67;;;;;;;;;;5110506;28;20020;-76
2021/05/09 06:42:39;;;;;;;5.93;2.60;;;;;;;;;;5110039;28;20028;-75
2021/05/09 06:45:11;;;;;;;8.98;3.88;;;;;;;;;;5110474;28;20024;-76
2021/05/09 06:50:12;;;;;;;9.93;3.70;;;;;;;;;;5091051;27;20460;-75
2021/05/09 06:53:52;;;;;;;7.95;2.97;;;;;;;;;;5110486;27;20377;-75
2021/05/09 06:56:18;;;;;;;8.18;2.25;;;;;;;;;;5110314;28;20055;-76
2021/05/09 06:58:44;;;;;;;4.43;2.03;;;;;;;;;;5109265;28;20028;-76
2021/05/09 07:01:54;;;;;;;5.65;2.10;;;;;;;;;;5130571;27;20517;-75
2021/05/09 07:04:20;;;;;;;5.30;2.42;;;;;;;;;;5131020;28;20047;-75
2021/05/09 07:06:46;;;;;;;4.60;2.05;;;;;;;;;;5130885;28;20472;-75
2021/05/09 07:09:12;;;;;;;4.82;2.30;;;;;;;;;;5130495;28;20062;-76
2021/05/09 07:12:26;;;;;;;7.43;2.22;;;;;;;;;;5130872;27;20161;-74
2021/05/09 07:15:49;;;;;;;4.85;2.33;;;;;;;;;;5110249;27;20434;-74
2021/05/09 07:18:19;;;;;;;7.47;2.45;;;;;;;;;;5110563;28;20384;-75
2021/05/09 07:20:47;;;;;;;7.30;2.58;;;;;;;;;;5110378;28;20023;-76
2021/05/09 07:23:15;;;;;;;4.85;2.25;;;;;;;;;;5108682;28;20046;-76
2021/05/09 07:25:42;;;;;;;5.07;1.90;;;;;;;;;;5110104;28;20024;-76
2021/05/09 07:28:09;;;;;;;5.13;2.03;;;;;;;;;;5109114;28;20020;-77
2021/05/09 07:30:35;;;;;;;6.03;2.30;;;;;;;;;;5108735;28;20031;-76
2021/05/09 07:33:01;;;;;;;4.15;1.98;;;;;;;;;;5110264;28;20024;-76
2021/05/09 07:35:28;;;;;;;6.55;2.20;;;;;;;;;;5110326;28;20493;-75
2021/05/09 07:37:54;;;;;;;3.25;1.73;;;;;;;;;;5109777;28;20027;-76
2021/05/09 07:41:38;;;;;;;3.63;1.70;;;;;;;;;;5110280;27;20430;-75
2021/05/09 07:44:06;;;;;;;4.45;2.05;;;;;;;;;;5110220;28;20101;-76
2021/05/09 07:46:32;;;;;;;5.97;2.17;;;;;;;;;;5109140;28;20028;-76
2021/05/09 07:50:30;;;;;;;5.97;2.40;;;;;;;;;;5110432;27;20779;-75
2021/05/09 07:53:27;;;;;;;4.40;1.77;;;;;;;;;;5110749;27;20381;-75
2021/05/09 07:57:51;;;;;;;4.18;1.77;;;;;;;;;;5110397;27;20598;-77
2021/05/09 08:00:19;;;;;;;4.03;1.70;;;;;;;;;;5109446;28;20101;-76
2021/05/09 08:05:54;;;;;;;3.72;1.50;;;;;;;;;;5110089;27;20411;-78
2021/05/09 08:08:25;;;;;;;3.22;1.33;;;;;;;;;;5110489;28;20085;-75
2021/05/09 08:14:15;;;;;;;3.08;1.20;;;;;;;;;;5110062;27;20468;-76
2021/05/09 08:17:39;;;;;;;3.20;1.92;;;;;;;;;;5110845;27;20388;-76
2021/05/09 08:21:01;;;;;;;4.55;1.15;;;;;;;;;;5110184;27;20385;-77
2021/05/09 08:23:27;;;;;;;2.20;1.20;;;;;;;;;;5110496;28;20032;-77
2021/05/09 08:25:53;;;;;;;2.53;1.15;;;;;;;;;;5110506;28;20020;-78
2021/05/09 08:28:19;;;;;;;1.92;1.10;;;;;;;;;;5110201;28;20036;-77
2021/05/09 08:30:45;;;;;;;1.88;0.93;;;;;;;;;;5108889;28;20035;-77
2021/05/09 08:33:11;;;;;;;2.63;1.13;;;;;;;;;;5110214;28;20383;-77
2021/05/09 08:36:46;;;;;;;2.03;0.88;;;;;;;;;;5131086;27;20161;-75
2021/05/09 08:40:14;;;;;;;2.10;1.02;;;;;;;;;;5110132;27;20434;-77
2021/05/09 08:42:41;;;;;;;3.53;1.17;;;;;;;;;;5110546;28;20378;-76
2021/05/09 08:45:57;;;;;;;2.85;1.70;;;;;;;;;;5110830;27;20377;-78
2021/05/09 08:48:25;;;;;;;5.10;2.28;;;;;;;;;;5110331;28;20480;-77
2021/05/09 08:50:52;;;;;;;6.47;1.70;;;;;;;;;;5110529;28;20020;-78
2021/05/09 08:53:28;;;;;;;2.67;1.33;;;;;;;;;;5110484;27;20380;-77
2021/05/09 08:55:55;;;;;;;4.25;1.45;;;;;;;;;;5110133;28;20047;-76
2021/05/09 08:58:22;;;;;;;5.28;1.35;;;;;;;;;;5110883;28;20028;-76
2021/05/09 09:00:48;;;;;;;3.28;1.05;;;;;;;;;;5110543;28;20028;-79
2021/05/09 09:03:15;;;;;;;1.42;1.10;;;;;;;;;;5108719;28;20065;-77
2021/05/09 09:05:42;;;;;;;2.00;0.90;;;;;;;;;;5110402;28;20076;-79
2021/05/09 09:08:09;;;;;;;1.52;1.00;;;;;;;;;;5110336;28;20357;-78
2021/05/09 09:10:39;;;;;;;6.40;1.27;;;;;;;;;;5109952;28;20084;-77
2021/05/09 09:13:26;;;;;;;3.55;1.35;;;;;;;;;;5110492;27;20376;-77
2021/05/09 09:15:54;;;;;;;3.28;1.20;;;;;;;;;;5110261;28;20020;-76
2021/05/09 09:18:26;;;;;;;1.77;1.02;;;;;;;;;;5110657;28;20016;-76
2021/05/09 09:20:52;;;;;;;4.60;2.30;;;;;;;;;;5110465;28;20055;-76
2021/05/09 09:23:18;;;;;;;5.05;1.92;;;;;;;;;;5109947;28;20384;-76
2021/05/09 09:25:44;;;;;;;8.07;2.20;;;;;;;;;;5109073;28;20061;-77
2021/05/09 09:28:11;;;;;;;4.45;1.95;;;;;;;;;;5108867;28;20597;-77
2021/05/09 09:34:10;;;;;;;6.82;3.10;;;;;;;;;;5070054;28;20427;-77
2021/05/09 09:36:37;;;;;;;4.30;2.15;;;;;;;;;;5070079;28;20108;-77
2021/05/09 09:39:04;;;;;;;6.38;2.13;;;;;;;;;;5070112;28;20482;-77
2021/05/09 09:41:31;;;;;;;5.90;2.67;;;;;;;;;;5069181;28;20033;-76
2021/05/09 09:44:08;;;;;;;4.60;1.67;;;;;;;;;;5069621;28;20036;-76
2021/05/09 09:46:35;;;;;;;4.15;1.83;;;;;;;;;;5070006;28;20090;-76
2021/05/09 09:49:03;;;;;;;2.80;1.50;;;;;;;;;;5068701;28;20362;-78
2021/05/09 09:51:29;;;;;;;2.42;1.35;;;;;;;;;;5068478;28;20261;-76
2021/05/09 09:53:57;;;;;;;5.65;2.95;;;;;;;;;;5069628;28;20398;-76
2021/05/09 09:56:24;;;;;;;7.45;3.30;;;;;;;;;;5069671;28;20419;-76
2021/05/09 09:59:04;;;;;;;6.00;3.05;;;;;;;;;;5068212;28;20025;-76
2021/05/09 10:01:32;;;;;;;10.25;3.28;;;;;;;;;;5069514;28;20465;-76
2021/05/09 10:04:09;;;;;;;5.43;2.22;;;;;;;;;;5068156;28;20499;-76
2021/05/09 10:06:38;;;;;;;11.18;5.78;;;;;;;;;;5069054;28;20404;-76
2021/05/09 10:09:36;;;;;;;6.35;3.20;;;;;;;;;;5110546;27;20438;-76
2021/05/09 10:12:02;;;;;;;7.70;3.53;;;;;;;;;;5110090;28;20470;-75
2021/05/09 10:14:29;;;;;;;10.18;4.13;;;;;;;;;;5110397;28;20440;-75
2021/05/09 10:16:56;;;;;;;5.00;2.53;;;;;;;;;;5109302;28;20024;-76
2021/05/09 10:19:23;;;;;;;1.98;0.80;;;;;;;;;;5108879;28;20027;-75
2021/05/09 10:21:50;;;;;;;1.38;0.85;;;;;;;;;;5110619;28;20113;-77
2021/05/09 10:24:23;;;;;;;1.80;0.77;;;;;;;;;;5110649;28;20016;-75
2021/05/09 10:29:52;;;;;;;2.42;1.23;;;;;;;;;;5070303;28;20384;-77
2021/05/09 10:32:18;;;;;;;5.82;2.30;;;;;;;;;;5070140;28;20477;-76
2021/05/09 10:37:38;;;;;;;4.15;2.10;;;;;;;;;;5069967;28;20025;-75
2021/05/09 10:40:17;;;;;;;9.50;4.90;;;;;;;;;;5069609;28;20029;-76
2021/05/09 10:42:43;;;;;;;6.95;2.67;;;;;;;;;;5069724;28;20025;-76
2021/05/09 10:45:09;;;;;;;3.05;1.33;;;;;;;;;;5069692;28;20031;-76
2021/05/09 10:47:35;;;;;;;2.50;1.23;;;;;;;;;;5069042;28;20427;-75
2021/05/09 10:50:27;;;;;;;2.97;1.17;;;;;;;;;;5069627;28;20067;-75
2021/05/09 10:52:55;;;;;;;2.85;1.60;;;;;;;;;;5069600;28;20024;-75
2021/05/09 10:55:36;;;;;;;7.30;2.70;;;;;;;;;;5069312;28;20032;-76
2021/05/09 10:58:03;;;;;;;2.45;1.20;;;;;;;;;;5068525;28;20025;-76
2021/05/09 11:00:29;;;;;;;3.75;1.70;;;;;;;;;;5069498;28;20021;-75
2021/05/09 11:02:56;;;;;;;2.92;1.40;;;;;;;;;;5069051;28;20021;-76
2021/05/09 11:08:12;;;;;;;5.78;1.65;;;;;;;;;;5109960;27;20316;-75
2021/05/09 11:10:39;;;;;;;1.67;1.02;;;;;;;;;;5110387;28;20426;-76
2021/05/09 11:13:09;;;;;;;2.13;1.33;;;;;;;;;;5109208;28;20042;-76
2021/05/09 11:15:36;;;;;;;3.90;1.00;;;;;;;;;;5110214;28;20380;-76
2021/05/09 11:18:12;;;;;;;1.40;0.68;;;;;;;;;;5109161;28;20028;-76
2021/05/09 11:20:50;;;;;;;6.40;2.50;;;;;;;;;;5110258;28;20051;-75
2021/05/09 11:25:32;;;;;;;3.05;1.08;;;;;;;;;;5110563;27;20380;-74
2021/05/09 11:27:58;;;;;;;1.10;0.80;;;;;;;;;;5110564;28;20369;-76
2021/05/09 11:30:37;;;;;;;4.13;1.80;;;;;;;;;;5108936;28;20437;-76
2021/05/09 11:33:04;;;;;;;0.93;0.70;;;;;;;;;;5110586;28;20016;-76
2021/05/09 11:35:39;;;;;;;1.98;1.02;;;;;;;;;;5110615;28;20085;-76
2021/05/09 11:38:15;;;;;;;1.52;1.00;;;;;;;;;;5109915;28;20031;-76
2021/05/09 11:40:42;;;;;;;1.45;0.95;;;;;;;;;;5110176;28;20028;-76
2021/05/09 11:43:14;;;;;;;2.17;0.88;;;;;;;;;;5109804;28;20016;-76
2021/05/09 11:45:41;;;;;;;3.25;1.77;;;;;;;;;;5110105;28;20552;-76
2021/05/09 11:48:08;;;;;;;3.42;1.58;;;;;;;;;;5108808;28;20434;-76
2021/05/09 11:50:34;;;;;;;2.90;1.25;;;;;;;;;;5109653;28;20015;-76
2021/05/09 11:53:00;;;;;;;2.47;0.90;;;;;;;;;;5110005;28;20069;-76
2021/05/09 11:55:26;;;;;;;1.10;0.88;;;;;;;;;;5110296;28;20026;-76
2021/05/09 11:57:52;;;;;;;2.45;1.02;;;;;;;;;;5109627;28;20037;-76
2021/05/09 12:00:19;;;;;;;5.63;1.73;;;;;;;;;;5109919;28;20023;-76
2021/05/09 12:02:47;;;;;;;2.05;0.98;;;;;;;;;;5109815;28;20024;-76
2021/05/09 12:05:17;;;;;;;1.55;1.13;;;;;;;;;;5109312;28;20040;-76
2021/05/09 12:07:50;;;;;;;3.83;1.40;;;;;;;;;;5109636;28;20475;-77
2021/05/09 12:10:17;;;;;;;2.45;1.38;;;;;;;;;;5109600;28;20023;-76
2021/05/09 12:12:45;;;;;;;1.55;1.10;;;;;;;;;;5109471;28;20023;-77
2021/05/09 12:15:12;;;;;;;3.55;1.27;;;;;;;;;;5108672;28;20438;-76
2021/05/09 12:18:05;;;;;;;3.10;1.58;;;;;;;;;;5109516;28;20028;-75
2021/05/09 12:20:40;;;;;;;3.97;1.08;;;;;;;;;;5104523;28;20032;-75
2021/05/09 12:23:08;;;;;;;2.08;1.15;;;;;;;;;;5109032;28;20145;-74
2021/05/09 12:25:38;;;;;;;3.67;1.70;;;;;;;;;;5109061;28;20032;-76
2021/05/09 12:28:05;;;;;;;3.00;1.20;;;;;;;;;;5109294;28;20019;-76
2021/05/09 12:30:31;;;;;;;1.45;1.00;;;;;;;;;;5109327;28;20019;-76
2021/05/09 12:32:57;;;;;;;2.95;1.40;;;;;;;;;;5108966;28;20024;-76
2021/05/09 12:35:23;;;;;;;3.08;1.30;;;;;;;;;;5103826;28;20024;-76
2021/05/09 12:37:49;;;;;;;2.10;1.05;;;;;;;;;;5095444;28;20028;-76
2021/05/09 12:40:16;;;;;;;2.90;1.02;;;;;;;;;;5095239;28;20052;-77
2021/05/09 12:43:02;;;;;;;2.60;1.33;;;;;;;;;;5095545;28;20024;-76
2021/05/09 12:45:34;;;;;;;2.60;0.98;;;;;;;;;;5095362;28;20039;-76
2021/05/09 12:48:08;;;;;;;1.10;1.00;;;;;;;;;;5093753;28;20055;-76
2021/05/09 12:50:47;;;;;;;3.53;0.88;;;;;;;;;;5095188;28;20028;-75
2021/05/09 12:53:17;;;;;;;2.13;0.90;;;;;;;;;;5095466;28;20028;-76
2021/05/09 12:55:44;;;;;;;2.55;1.23;;;;;;;;;;5093969;28;20480;-76
2021/05/09 12:58:14;;;;;;;1.48;0.80;;;;;;;;;;5095130;28;20020;-75
2021/05/09 13:00:41;;;;;;;1.77;0.95;;;;;;;;;;5093442;28;20028;-75
2021/05/09 13:03:07;;;;;;;3.42;1.23;;;;;;;;;;5095028;28;20384;-75
2021/05/09 13:05:34;;;;;;;3.53;1.60;;;;;;;;;;5094944;28;20026;-75
2021/05/09 13:08:00;;;;;;;2.45;1.20;;;;;;;;;;5094484;28;20024;-76
2021/05/09 13:10:28;;;;;;;3.28;1.13;;;;;;;;;;5094919;28;20082;-75
2021/05/09 13:12:55;;;;;;;1.63;0.90;;;;;;;;;;5094945;28;20026;-75
2021/05/09 13:15:21;;;;;;;2.00;0.90;;;;;;;;;;5094563;28;20069;-75
2021/05/09 13:17:48;;;;;;;2.53;1.05;;;;;;;;;;5094770;28;20038;-75
2021/05/09 13:20:15;;;;;;;2.00;1.10;;;;;;;;;;5094771;28;20147;-75
2021/05/09 13:22:41;;;;;;;2.30;1.50;;;;;;;;;;5094243;28;20089;-75
2021/05/09 13:25:08;;;;;;;3.47;1.48;;;;;;;;;;5094359;28;20058;-75
2021/05/09 13:27:34;;;;;;;2.33;1.48;;;;;;;;;;5094594;28;20446;-76
2021/05/09 13:30:01;;;;;;;2.30;1.00;;;;;;;;;;5092837;28;20024;-75
2021/05/09 13:32:28;;;;;;;3.80;1.20;;;;;;;;;;5094829;28;20085;-75
2021/05/09 13:34:54;;;;;;;1.15;0.70;;;;;;;;;;5093379;28;20024;-75
2021/05/09 13:37:20;;;;;;;1.67;0.80;;;;;;;;;;5094027;28;20062;-77
2021/05/09 13:39:48;;;;;;;2.17;1.33;;;;;;;;;;5093163;28;20502;-76
2021/05/09 13:42:15;;;;;;;2.35;1.10;;;;;;;;;;5094319;28;20031;-78
2021/05/09 13:44:41;;;;;;;2.15;1.00;;;;;;;;;;5093685;28;20484;-76
2021/05/09 13:47:07;;;;;;;2.20;1.13;;;;;;;;;;5093179;28;20100;-75
2021/05/09 13:49:33;;;;;;;2.72;1.10;;;;;;;;;;5093993;28;20020;-75
2021/05/09 13:52:00;;;;;;;3.08;1.33;;;;;;;;;;5094270;28;20468;-76
2021/05/09 13:54:26;;;;;;;1.42;0.98;;;;;;;;;;5094283;28;20476;-76
2021/05/09 13:56:53;;;;;;;3.40;1.88;;;;;;;;;;5092492;28;20028;-76
2021/05/09 13:59:19;;;;;;;3.20;1.67;;;;;;;;;;5094079;28;20047;-76
2021/05/09 14:01:45;;;;;;;2.97;1.30;;;;;;;;;;5094031;28;20413;-76
2021/05/09 14:04:12;;;;;;;3.65;1.42;;;;;;;;;;5093452;28;20028;-76
2021/05/09 14:06:38;;;;;;;2.42;1.20;;;;;;;;;;5093925;28;20085;-76
2021/05/09 14:09:05;;;;;;;2.05;1.40;;;;;;;;;;5093953;28;20107;-76
2021/05/09 14:11:32;;;;;;;3.15;1.20;;;;;;;;;;5093433;28;20020;-76
2021/05/09 14:13:59;;;;;;;3.70;1.63;;;;;;;;;;5093905;28;20049;-76
2021/05/09 14:16:26;;;;;;;2.20;1.08;;;;;;;;;;5093774;28;20077;-75
2021/05/09 14:18:52;;;;;;;2.40;1.20;;;;;;;;;;5091989;28;20028;-75
2021/05/09 14:21:19;;;;;;;2.00;1.27;;;;;;;;;;5093697;28;20173;-76
2021/05/09 14:23:45;;;;;;;4.18;1.75;;;;;;;;;;5093089;28;20047;-75
2021/05/09 14:26:11;;;;;;;2.50;1.48;;;;;;;;;;5091790;28;20469;-76
2021/05/09 14:28:37;;;;;;;2.88;1.70;;;;;;;;;;5093502;28;20028;-75
2021/05/09 14:31:03;;;;;;;5.80;1.73;;;;;;;;;;5092063;28;20028;-76
2021/05/09 14:33:30;;;;;;;2.30;1.33;;;;;;;;;;5093342;28;20422;-76
2021/05/09 14:35:56;;;;;;;3.70;1.67;;;;;;;;;;5093527;28;20077;-76
2021/05/09 14:38:22;;;;;;;3.15;1.25;;;;;;;;;;5093350;28;20024;-76
2021/05/09 14:40:49;;;;;;;4.18;1.90;;;;;;;;;;5092868;28;20051;-75
2021/05/09 14:43:15;;;;;;;2.58;1.50;;;;;;;;;;5093137;28;20123;-75
2021/05/09 14:45:41;;;;;;;3.22;1.77;;;;;;;;;;5093148;28;20488;-75
2021/05/09 14:48:08;;;;;;;3.55;1.80;;;;;;;;;;5092719;28;20353;-75
2021/05/09 14:50:34;;;;;;;3.15;1.85;;;;;;;;;;5093098;28;20039;-75
2021/05/09 14:53:01;;;;;;;3.63;2.00;;;;;;;;;;5092884;28;20488;-76
2021/05/09 14:55:28;;;;;;;4.95;1.67;;;;;;;;;;5093257;28;20023;-75
2021/05/09 14:57:54;;;;;;;2.92;1.58;;;;;;;;;;5092745;28;20099;-76
2021/05/09 15:00:20;;;;;;;2.70;1.50;;;;;;;;;;5092507;28;20465;-75
2021/05/09 15:02:46;;;;;;;4.25;1.48;;;;;;;;;;5091692;28;20488;-77
2021/05/09 15:05:13;;;;;;;2.47;1.58;;;;;;;;;;5093098;28;20024;-76
2021/05/09 15:07:39;;;;;;;2.05;1.83;;;;;;;;;;5091186;28;20024;-76
2021/05/09 15:10:06;;;;;;;4.53;2.55;;;;;;;;;;5091515;28;20040;-77
2021/05/09 15:12:32;;;;;;;3.25;1.52;;;;;;;;;;5092963;28;20039;-76
2021/05/09 15:14:59;;;;;;;4.22;1.70;;;;;;;;;;5092594;28;20028;-75
2021/05/09 15:17:25;;;;;;;4.07;2.05;;;;;;;;;;5092831;28;20020;-76
2021/05/09 15:19:52;;;;;;;6.43;2.10;;;;;;;;;;5092652;28;20026;-76
2021/05/09 15:22:19;;;;;;;2.95;1.80;;;;;;;;;;5092320;28;20024;-75
2021/05/09 15:24:45;;;;;;;11.00;2.33;;;;;;;;;;5092366;28;20070;-75
2021/05/09 15:27:11;;;;;;;3.67;1.50;;;;;;;;;;5091243;28;20440;-75